Terminal Aerodrome Forecast
Issued by NWS Quad Cities IA IL

Home | Current Version | Previous Version | Text Only | Print | Product List | Glossary On
Versions: 1 2 3 4 5 6 7 8 9 10 11 12 13 14 15 16 17 18 19 20 21 22 23 24 25 26
406
FTUS43 KDVN 182320
TAFDBQ
TAF
KDBQ 182320Z 1900/1924 16015KT P6SM BKN200 WS015/19050KT
     FM190500 18012KT 3SM BR OVC020
     FM190800 18008KT 1/2SM -DZ FG OVC005
     FM191500 11007KT 1SM -SHRA BR OVC004
     FM191800 09010KT 2SM -SHRA BR OVC008=

USA.gov is the U.S. government's official web portal to all federal, state and local government web resources and services.